Terminal Aerodrome Forecast
Issued by NWS

Home | Current Version | Previous Version | Text Only | Print | Product List | Glossary On
Versions: 1 2 3 4 5 6 7 8 9 10 11 12 13 14 15
000
FTUS46 KMFR 240540
TAFOTH
TAF
KOTH 240540Z 2406/2506 14003KT P6SM SCT025
     FM241700 16008KT P6SM SCT020 OVC050
     FM242000 18011KT 5SM -RA SCT020 OVC040
     FM250300 20007KT 4SM -RADZ OVC020=

USA.gov is the U.S. government's official web portal to all federal, state and local government web resources and services.